Main page
METAR-TAF:

METAR-TAF

Airports :

Claremore Regional Airport

Claremore, Oklahoma, United States

latitude: 36-17-40N, longitude: 095-28-47W, elevation: 725 ft

Current weather observation

The report was made 27 minutes ago, at 12:55 UTC
Calm wind
Temperature 70°F
Humidity 100%
Pressure 29.84 in. Hg
Visibility: 10 miles
Few clouds at a height of 1800 ft
Broken clouds at a height of 4100 ft
Overcast at a height of 4900 ft

METAR: KGCM 231255Z AUTO 00000KT 10SM FEW018 BKN041 OVC049 21/21 A2984 RMK AO2

Time: 08:22 (13:22 UTC)


TAF: missing

Weather observations and forecasts of more than 4000 airports (METAR and TAF reports).

The available stations are represented by yellow and red dots on the map.

Hover mouse over dot to see the name of the station.

Then click to see weather observations and forecasts.

To change the map : click on the green buttons with a black cross to zoom in, on the green button with a dash to zoom out, or on the green arrows for adjacent maps.


METAR-TAF: